Time;durP1;ratioP1;P1;durP2;ratioP2;P2;SDS_P1;SDS_P2;PMS_P1;PMS_P2;Temp;Humidity;BMP_temperature;BMP_pressure;BME280_temperature;BME280_humidity;BME280_pressure;Samples;Min_cycle;Max_cycle;Signal;HPM_P1;HPM_P2
2022/07/26 00:01:57;;;;;;;3.80;2.40;;;27.10;36.90;;;;;;20727;6840;117244;-87
2022/07/26 00:04:24;;;;;;;2.53;2.23;;;26.80;37.60;;;;;;20725;6840;118920;-87
2022/07/26 00:06:49;;;;;;;2.95;2.42;;;26.80;37.30;;;;;;20502;6840;327961;-87
2022/07/26 00:09:15;;;;;;;2.50;2.30;;;27.10;36.90;;;;;;20521;6840;304570;-87
2022/07/26 00:11:42;;;;;;;3.00;2.10;;;27.50;36.60;;;;;;20529;6840;340935;-87
2022/07/26 00:14:07;;;;;;;4.00;2.15;;;27.80;36.30;;;;;;20524;6840;309047;-87
2022/07/26 00:16:33;;;;;;;3.28;2.20;;;27.90;35.90;;;;;;20523;6840;282729;-87
2022/07/26 00:18:58;;;;;;;4.03;2.30;;;28.00;35.50;;;;;;20706;6840;120998;-87
2022/07/26 00:21:24;;;;;;;2.92;2.53;;;27.70;35.90;;;;;;20517;6840;279112;-87
2022/07/26 00:23:49;;;;;;;2.70;1.87;;;27.60;36.10;;;;;;20734;6840;117300;-87
2022/07/26 00:26:15;;;;;;;3.33;2.33;;;27.40;36.40;;;;;;20518;6838;308741;-87
2022/07/26 00:28:41;;;;;;;3.13;2.40;;;27.70;36.50;;;;;;20511;6840;337628;-88
2022/07/26 00:31:07;;;;;;;3.53;2.10;;;27.60;36.40;;;;;;20535;6840;286817;-87
2022/07/26 00:33:33;;;;;;;2.70;2.12;;;27.90;36.20;;;;;;20728;6840;117772;-87
2022/07/26 00:35:58;;;;;;;2.50;2.30;;;27.70;36.60;;;;;;20741;6840;117895;-87
2022/07/26 00:38:24;;;;;;;4.93;2.20;;;27.40;37.20;;;;;;20739;6840;118283;-87
2022/07/26 00:40:50;;;;;;;1.73;1.63;;;27.00;37.80;;;;;;20707;6840;122933;-88
2022/07/26 00:43:16;;;;;;;2.97;2.00;;;27.00;37.80;;;;;;20526;6840;282833;-87
2022/07/26 00:45:41;;;;;;;2.30;1.90;;;27.20;37.90;;;;;;20523;6840;311646;-87
2022/07/26 00:48:07;;;;;;;2.90;2.20;;;27.50;37.40;;;;;;20733;6840;117184;-86
2022/07/26 00:50:33;;;;;;;2.53;1.97;;;27.50;37.40;;;;;;20738;6840;117183;-86
2022/07/26 00:52:59;;;;;;;2.20;1.90;;;27.20;37.60;;;;;;20496;6840;310013;-86
2022/07/26 00:55:25;;;;;;;2.67;1.90;;;27.20;37.50;;;;;;20731;6840;117438;-86
2022/07/26 00:57:50;;;;;;;2.00;1.90;;;27.20;37.50;;;;;;20724;6840;118703;-86
2022/07/26 01:00:16;;;;;;;2.43;1.60;;;27.00;37.90;;;;;;20734;6840;117251;-86
2022/07/26 01:02:42;;;;;;;2.20;2.00;;;26.80;38.30;;;;;;20491;6840;308942;-86
2022/07/26 01:05:07;;;;;;;2.58;2.10;;;27.00;38.40;;;;;;20519;6840;338075;-86
2022/07/26 01:07:33;;;;;;;3.05;1.85;;;27.30;37.80;;;;;;20540;6840;302752;-88
2022/07/26 01:09:58;;;;;;;3.12;2.10;;;27.50;37.40;;;;;;20517;6840;303832;-86
2022/07/26 01:12:25;;;;;;;4.10;2.27;;;27.80;36.90;;;;;;20518;6840;308573;-86
2022/07/26 01:14:50;;;;;;;2.40;2.20;;;27.70;36.80;;;;;;20706;6840;119175;-87
2022/07/26 01:17:16;;;;;;;2.15;2.00;;;27.50;37.30;;;;;;20522;6840;338141;-86
2022/07/26 01:19:43;;;;;;;4.17;2.27;;;27.30;37.80;;;;;;20732;6840;117520;-86
2022/07/26 01:22:09;;;;;;;2.85;2.00;;;27.20;37.80;;;;;;20519;6840;338048;-86
2022/07/26 01:24:34;;;;;;;2.40;1.87;;;27.30;37.80;;;;;;20744;6840;121420;-86
2022/07/26 01:27:00;;;;;;;2.45;2.00;;;27.20;38.10;;;;;;20506;6840;446355;-86
2022/07/26 01:29:26;;;;;;;3.22;2.10;;;27.30;38.40;;;;;;20533;6840;283767;-89
2022/07/26 01:31:52;;;;;;;3.62;2.10;;;27.50;37.90;;;;;;20527;6840;337734;-87
2022/07/26 01:34:19;;;;;;;2.27;1.77;;;27.50;38.10;;;;;;20735;6840;118361;-87
2022/07/26 01:36:44;;;;;;;2.67;2.10;;;27.50;38.10;;;;;;20510;6839;310574;-86
2022/07/26 01:39:11;;;;;;;3.12;1.85;;;27.60;37.90;;;;;;20515;6839;337611;-88
2022/07/26 01:41:36;;;;;;;3.63;1.80;;;27.70;37.70;;;;;;20533;6840;313303;-87
2022/07/26 01:44:03;;;;;;;3.30;2.03;;;27.80;37.60;;;;;;20549;6840;307012;-86
2022/07/26 01:46:29;;;;;;;2.63;1.80;;;28.00;37.80;;;;;;20809;6840;118278;-87
2022/07/26 01:48:56;;;;;;;1.92;1.65;;;27.70;38.00;;;;;;20573;6840;340541;-87
2022/07/26 01:51:21;;;;;;;2.10;1.90;;;27.70;38.50;;;;;;20804;6840;119203;-87
2022/07/26 01:53:47;;;;;;;2.37;1.60;;;27.50;38.60;;;;;;20821;6840;66404;-87
2022/07/26 01:56:13;;;;;;;1.53;1.47;;;27.20;38.90;;;;;;20815;6840;117622;-86
2022/07/26 01:58:38;;;;;;;2.12;1.90;;;26.90;39.20;;;;;;20597;6840;278467;-87
2022/07/26 02:01:06;;;;;;;2.40;1.80;;;27.10;39.30;;;;;;20577;6840;277754;-86
2022/07/26 02:03:32;;;;;;;2.97;2.20;;;27.40;38.80;;;;;;20528;6840;286597;-86
2022/07/26 02:05:57;;;;;;;2.20;2.00;;;27.60;38.70;;;;;;20525;6840;283830;-86
2022/07/26 02:08:23;;;;;;;2.90;1.80;;;27.70;38.40;;;;;;20524;6840;278196;-86
2022/07/26 02:11:02;;;;;;;2.00;1.90;;;27.70;38.00;;;;;;20714;6840;128235;-87
2022/07/26 02:13:27;;;;;;;2.23;1.80;;;27.50;38.50;;;;;;20526;6840;278494;-86
2022/07/26 02:15:54;;;;;;;1.93;1.60;;;27.20;38.90;;;;;;20724;6840;117510;-86
2022/07/26 02:18:19;;;;;;;2.42;1.98;;;27.20;38.90;;;;;;20520;6840;278540;-86
2022/07/26 02:20:45;;;;;;;1.80;1.70;;;27.20;39.10;;;;;;20495;6840;307859;-86
2022/07/26 02:23:11;;;;;;;4.47;1.60;;;27.10;39.50;;;;;;20739;6840;118647;-86
2022/07/26 02:25:37;;;;;;;2.50;1.58;;;27.10;39.00;;;;;;20513;6840;308621;-86
2022/07/26 02:28:02;;;;;;;1.70;1.60;;;27.10;39.10;;;;;;20732;6840;117382;-86
2022/07/26 02:30:28;;;;;;;2.53;1.87;;;26.90;40.00;;;;;;20512;6840;309265;-86
2022/07/26 02:32:53;;;;;;;4.03;1.70;;;26.90;39.50;;;;;;20711;6840;117448;-86
2022/07/26 02:35:19;;;;;;;1.80;1.70;;;26.70;39.60;;;;;;20511;6840;308079;-86
2022/07/26 02:37:45;;;;;;;1.70;1.60;;;26.70;39.80;;;;;;20707;6840;117564;-86
2022/07/26 02:40:10;;;;;;;3.40;2.10;;;26.60;40.10;;;;;;20728;6840;117213;-86
2022/07/26 02:42:36;;;;;;;4.57;1.73;;;26.30;40.60;;;;;;20716;6840;117204;-86
2022/07/26 02:45:02;;;;;;;1.60;1.48;;;26.00;40.90;;;;;;20716;6840;118566;-87
2022/07/26 02:47:27;;;;;;;1.43;1.30;;;25.90;41.40;;;;;;20511;6840;283801;-86
2022/07/26 02:49:53;;;;;;;1.50;1.40;;;26.10;41.40;;;;;;20522;6838;307645;-86
2022/07/26 02:52:19;;;;;;;2.43;1.37;;;26.50;41.10;;;;;;20709;6840;117801;-86
2022/07/26 02:54:44;;;;;;;1.30;1.20;;;26.40;41.00;;;;;;20504;6840;308952;-86
2022/07/26 02:57:12;;;;;;;1.60;1.50;;;26.50;41.20;;;;;;20521;6840;308431;-86
2022/07/26 02:59:35;;;;;;;1.50;1.37;;;26.70;40.70;;;;;;20719;6840;117283;-86
2022/07/26 03:02:01;;;;;;;2.23;1.27;;;26.50;40.80;;;;;;20512;6840;306214;-86
2022/07/26 03:04:26;;;;;;;1.30;1.20;;;26.60;40.90;;;;;;20738;6840;118012;-86
2022/07/26 03:06:52;;;;;;;1.40;1.30;;;26.50;40.90;;;;;;20514;6840;278439;-86
2022/07/26 03:09:18;;;;;;;1.50;1.40;;;26.60;41.10;;;;;;20519;6840;308108;-86
2022/07/26 03:11:44;;;;;;;1.70;1.47;;;26.80;40.70;;;;;;20727;6840;118838;-87
2022/07/26 03:14:10;;;;;;;1.73;1.42;;;26.60;40.80;;;;;;20518;6840;308940;-86
2022/07/26 03:16:36;;;;;;;1.60;1.50;;;26.60;40.80;;;;;;20729;6840;121590;-86
2022/07/26 03:19:02;;;;;;;1.30;1.30;;;26.50;41.10;;;;;;20709;6840;118421;-87
2022/07/26 03:21:27;;;;;;;1.70;1.60;;;26.10;41.40;;;;;;20724;6840;118358;-87
2022/07/26 03:23:53;;;;;;;1.92;1.40;;;25.90;41.90;;;;;;20523;6840;283479;-87
2022/07/26 03:26:20;;;;;;;1.40;1.30;;;26.10;42.10;;;;;;20516;6840;342864;-87
2022/07/26 03:28:45;;;;;;;1.73;1.42;;;26.40;41.50;;;;;;20494;6840;308555;-87
2022/07/26 03:31:12;;;;;;;1.50;1.40;;;26.80;41.40;;;;;;20521;6840;313388;-86
2022/07/26 03:33:37;;;;;;;1.40;1.30;;;26.80;40.80;;;;;;20517;6840;305639;-86
2022/07/26 03:36:03;;;;;;;1.20;1.20;;;26.90;40.60;;;;;;20491;6840;308525;-87
2022/07/26 03:38:28;;;;;;;2.40;1.23;;;27.00;40.40;;;;;;20731;6840;119222;-86
2022/07/26 03:40:54;;;;;;;1.40;1.30;;;26.70;40.70;;;;;;20508;6840;308850;-86
2022/07/26 03:43:21;;;;;;;2.20;1.50;;;26.60;41.00;;;;;;20534;6840;278919;-86
2022/07/26 03:45:46;;;;;;;1.37;1.27;;;26.70;41.00;;;;;;20803;6840;117245;-87
2022/07/26 03:48:12;;;;;;;1.50;1.35;;;26.40;41.30;;;;;;20598;6840;342977;-88
2022/07/26 03:50:37;;;;;;;2.72;1.40;;;26.40;41.90;;;;;;20809;6840;117213;-89
2022/07/26 03:53:03;;;;;;;1.47;1.40;;;26.30;42.00;;;;;;20793;6840;116872;-86
2022/07/26 03:58:15;;;;;;;9.50;4.53;;;26.00;43.00;;;;;;20811;6840;116946;-89
2022/07/26 04:00:41;;;;;;;6.23;3.03;;;26.10;43.00;;;;;;20812;6838;123701;-89
2022/07/26 04:03:06;;;;;;;4.13;2.53;;;26.20;42.80;;;;;;20624;6839;277071;-89
2022/07/26 04:05:32;;;;;;;1.80;1.70;;;26.70;42.00;;;;;;20824;6840;116536;-89
2022/07/26 04:07:58;;;;;;;2.55;1.45;;;27.00;41.60;;;;;;20568;6840;305549;-88
2022/07/26 04:10:23;;;;;;;1.83;1.33;;;27.40;40.70;;;;;;20537;6840;282893;-88
2022/07/26 04:12:49;;;;;;;2.05;1.27;;;27.80;39.80;;;;;;20515;6840;308520;-89
2022/07/26 04:15:15;;;;;;;1.40;1.40;;;28.20;39.10;;;;;;20732;6840;118282;-90
2022/07/26 04:17:41;;;;;;;1.50;1.40;;;28.20;39.90;;;;;;20525;6840;308532;-86
2022/07/26 04:20:07;;;;;;;2.03;1.23;;;28.10;39.20;;;;;;20732;6840;122382;-87
2022/07/26 04:22:35;;;;;;;1.20;1.10;;;28.10;39.30;;;;;;20726;6840;117548;-86
2022/07/26 04:25:01;;;;;;;1.83;1.50;;;27.80;39.50;;;;;;20495;6840;278218;-86
2022/07/26 04:27:27;;;;;;;1.45;1.30;;;28.00;39.40;;;;;;20511;6840;312623;-87
2022/07/26 04:29:53;;;;;;;1.43;1.33;;;28.20;39.00;;;;;;20520;6840;279978;-90
2022/07/26 04:32:19;;;;;;;1.25;1.20;;;28.50;38.50;;;;;;20502;6840;307638;-87
2022/07/26 04:34:44;;;;;;;1.40;1.20;;;28.70;38.20;;;;;;20453;6840;344251;-88
2022/07/26 04:37:11;;;;;;;1.60;1.50;;;29.00;37.70;;;;;;20525;6840;307688;-87
2022/07/26 04:39:36;;;;;;;1.73;1.20;;;29.00;37.60;;;;;;20740;6840;117687;-87
2022/07/26 04:42:02;;;;;;;1.20;1.10;;;28.80;38.00;;;;;;20722;6840;117568;-87
2022/07/26 04:44:27;;;;;;;2.10;1.47;;;28.40;38.40;;;;;;20732;6840;117465;-85
2022/07/26 04:46:53;;;;;;;1.23;1.13;;;28.10;38.90;;;;;;20712;6840;117446;-87
2022/07/26 04:49:18;;;;;;;1.42;1.33;;;27.90;39.20;;;;;;20508;6840;280964;-87
2022/07/26 04:51:44;;;;;;;1.60;1.50;;;28.00;39.10;;;;;;20703;6840;118446;-87
2022/07/26 04:54:10;;;;;;;1.90;1.33;;;28.00;39.10;;;;;;20521;6840;308110;-87
2022/07/26 04:56:35;;;;;;;2.20;1.65;;;28.10;38.80;;;;;;20510;6840;296075;-87
2022/07/26 04:59:02;;;;;;;3.03;1.42;;;28.30;38.60;;;;;;20715;6840;121083;-87
2022/07/26 05:01:27;;;;;;;1.77;1.67;;;28.20;38.60;;;;;;20740;6840;117641;-87
2022/07/26 05:03:53;;;;;;;4.00;1.75;;;28.00;39.10;;;;;;20808;6840;120466;-86
2022/07/26 05:06:18;;;;;;;3.60;1.60;;;27.80;39.40;;;;;;20742;6840;117260;-86
2022/07/26 05:08:44;;;;;;;1.48;1.37;;;27.60;39.70;;;;;;20493;6840;312198;-87
2022/07/26 05:11:09;;;;;;;1.87;1.40;;;27.70;39.70;;;;;;20738;6840;117707;-86
2022/07/26 05:13:35;;;;;;;1.70;1.40;;;27.70;39.70;;;;;;20532;6838;278439;-87
2022/07/26 05:16:01;;;;;;;1.57;1.57;;;27.90;39.50;;;;;;20733;6840;118448;-87
2022/07/26 05:18:26;;;;;;;1.60;1.40;;;28.00;39.50;;;;;;20535;6840;278056;-88
2022/07/26 05:20:52;;;;;;;1.43;1.33;;;28.10;39.40;;;;;;20502;6840;312638;-87
2022/07/26 05:23:18;;;;;;;1.30;1.30;;;28.40;39.00;;;;;;20530;6840;337104;-85
2022/07/26 05:25:44;;;;;;;1.73;1.50;;;28.50;38.70;;;;;;20726;6840;117937;-87
2022/07/26 05:28:09;;;;;;;1.83;1.40;;;28.50;39.00;;;;;;20522;6840;321779;-85
2022/07/26 05:30:35;;;;;;;2.20;1.43;;;28.60;38.40;;;;;;20530;6840;312350;-85
2022/07/26 05:33:00;;;;;;;1.53;1.50;;;28.80;38.00;;;;;;20711;6840;118534;-86
2022/07/26 05:35:27;;;;;;;1.90;1.30;;;28.70;38.20;;;;;;20529;6840;307396;-90
2022/07/26 05:37:55;;;;;;;1.30;1.20;;;28.80;38.30;;;;;;20735;6840;117370;-87
2022/07/26 05:40:20;;;;;;;1.30;1.30;;;28.70;38.80;;;;;;20745;6840;117233;-87
2022/07/26 05:42:46;;;;;;;1.30;1.20;;;28.60;38.70;;;;;;20722;6840;121605;-87
2022/07/26 05:45:11;;;;;;;1.45;1.35;;;28.40;39.00;;;;;;20540;6840;285373;-91
2022/07/26 05:47:36;;;;;;;1.65;1.55;;;28.60;38.80;;;;;;20537;6840;282391;-86
2022/07/26 05:50:03;;;;;;;1.80;1.48;;;28.90;38.10;;;;;;20528;6840;311701;-86
2022/07/26 05:52:29;;;;;;;1.50;1.40;;;29.20;37.80;;;;;;20731;6840;118869;-88
2022/07/26 05:54:55;;;;;;;1.53;1.43;;;29.00;37.90;;;;;;20696;6840;117458;-85
2022/07/26 05:57:20;;;;;;;1.33;1.33;;;28.70;38.40;;;;;;20523;6840;304626;-88
2022/07/26 05:59:46;;;;;;;1.43;1.33;;;28.80;38.40;;;;;;20732;6840;117731;-86
2022/07/26 06:02:11;;;;;;;1.42;1.40;;;28.80;38.40;;;;;;20531;6840;279306;-85
2022/07/26 06:04:38;;;;;;;2.30;1.50;;;29.00;38.20;;;;;;20735;6840;121225;-86
2022/07/26 06:07:03;;;;;;;1.57;1.50;;;29.10;38.30;;;;;;20715;6840;117965;-87
2022/07/26 06:09:29;;;;;;;1.70;1.40;;;28.90;38.30;;;;;;20732;6840;117304;-86
2022/07/26 06:11:55;;;;;;;1.70;1.60;;;28.90;38.60;;;;;;20725;6840;117154;-86
2022/07/26 06:14:20;;;;;;;2.20;1.67;;;28.80;38.70;;;;;;20524;6840;312837;-86
2022/07/26 06:16:46;;;;;;;3.57;1.90;;;29.10;38.40;;;;;;20704;6840;118506;-86
2022/07/26 06:19:11;;;;;;;1.93;1.60;;;29.20;38.20;;;;;;20734;6840;117859;-86
2022/07/26 06:21:38;;;;;;;1.67;1.57;;;29.00;38.40;;;;;;20733;6840;119514;-86
2022/07/26 06:24:03;;;;;;;1.87;1.75;;;29.00;38.40;;;;;;20530;6838;308509;-85
2022/07/26 06:26:29;;;;;;;1.90;1.80;;;29.20;38.00;;;;;;20529;6840;295006;-86
2022/07/26 06:28:54;;;;;;;1.93;1.77;;;29.60;37.40;;;;;;20723;6840;118083;-85
2022/07/26 06:31:20;;;;;;;2.10;1.90;;;29.60;37.50;;;;;;20536;6840;278178;-87
2022/07/26 06:33:45;;;;;;;2.13;2.03;;;29.60;37.20;;;;;;20733;6840;118445;-87
2022/07/26 06:36:11;;;;;;;2.10;2.00;;;29.50;37.20;;;;;;20528;6840;293415;-87
2022/07/26 06:38:37;;;;;;;2.28;2.17;;;29.50;37.10;;;;;;20735;6840;117495;-87
2022/07/26 06:41:02;;;;;;;2.03;1.92;;;29.40;37.40;;;;;;20508;6840;278533;-86
2022/07/26 06:43:28;;;;;;;2.00;1.90;;;29.40;37.40;;;;;;20739;6840;119254;-87
2022/07/26 06:45:53;;;;;;;2.10;2.00;;;29.30;37.50;;;;;;20725;6840;118847;-85
2022/07/26 06:48:19;;;;;;;2.47;2.27;;;29.10;37.90;;;;;;20738;6840;117664;-85
2022/07/26 06:50:44;;;;;;;3.00;2.20;;;29.00;38.20;;;;;;20481;6840;312257;-85
2022/07/26 06:53:10;;;;;;;2.50;2.30;;;29.30;37.80;;;;;;20739;6840;118295;-84
2022/07/26 06:55:36;;;;;;;2.60;2.43;;;29.30;37.50;;;;;;20727;6840;117280;-85
2022/07/26 06:58:01;;;;;;;2.60;2.40;;;29.10;37.60;;;;;;20510;6840;280460;-84
2022/07/26 07:00:27;;;;;;;2.50;2.22;;;29.50;36.80;;;;;;20528;6840;304160;-84
2022/07/26 07:02:53;;;;;;;4.07;2.20;;;29.60;36.90;;;;;;20720;6840;117628;-84
2022/07/26 07:05:19;;;;;;;3.30;2.20;;;29.30;37.10;;;;;;20739;6840;122867;-84
2022/07/26 07:07:45;;;;;;;2.50;2.30;;;29.30;38.00;;;;;;20510;6840;309781;-84
2022/07/26 07:10:11;;;;;;;4.67;2.53;;;29.20;38.00;;;;;;20736;6840;122066;-84
2022/07/26 07:12:38;;;;;;;3.17;2.60;;;29.70;36.90;;;;;;20513;6840;312267;-86
2022/07/26 07:15:02;;;;;;;2.20;2.10;;;29.70;36.90;;;;;;20715;6840;118563;-85
2022/07/26 07:17:28;;;;;;;2.53;2.33;;;29.70;37.00;;;;;;20520;6840;336197;-84
2022/07/26 07:19:54;;;;;;;3.30;2.40;;;30.00;36.30;;;;;;20517;6840;294611;-85
2022/07/26 07:22:20;;;;;;;2.40;2.20;;;30.00;36.20;;;;;;20737;6840;117734;-87
2022/07/26 07:24:45;;;;;;;2.83;2.20;;;29.70;36.50;;;;;;20694;6840;117507;-87
2022/07/26 07:27:11;;;;;;;2.22;2.12;;;29.40;37.00;;;;;;20519;6840;309411;-88
2022/07/26 07:29:37;;;;;;;2.40;2.20;;;29.40;36.70;;;;;;20516;6840;308155;-87
2022/07/26 07:32:02;;;;;;;2.37;2.23;;;29.70;36.40;;;;;;20732;6840;117333;-87
2022/07/26 07:34:29;;;;;;;2.60;2.30;;;29.50;36.50;;;;;;20520;6840;278610;-87
2022/07/26 07:36:56;;;;;;;4.20;2.40;;;29.40;36.70;;;;;;20510;6839;279455;-88
2022/07/26 07:39:21;;;;;;;2.93;2.40;;;29.60;36.60;;;;;;20741;6840;118957;-86
2022/07/26 07:41:47;;;;;;;4.00;2.30;;;29.50;36.50;;;;;;20525;6840;307807;-86
2022/07/26 07:44:13;;;;;;;4.03;2.40;;;29.50;36.20;;;;;;20750;6840;117335;-87
2022/07/26 07:46:39;;;;;;;3.53;2.37;;;29.50;36.20;;;;;;20522;6840;307815;-86
2022/07/26 07:49:05;;;;;;;2.33;2.13;;;29.50;36.10;;;;;;20712;6840;120396;-86
2022/07/26 07:51:31;;;;;;;4.90;2.33;;;29.40;36.20;;;;;;20723;6840;117329;-87
2022/07/26 07:53:56;;;;;;;3.90;2.30;;;29.20;36.60;;;;;;20511;6840;278829;-87
2022/07/26 07:56:22;;;;;;;2.50;2.30;;;29.50;36.30;;;;;;20520;6840;287827;-87
2022/07/26 07:58:48;;;;;;;2.20;2.00;;;30.00;35.10;;;;;;20700;6840;117703;-87
2022/07/26 08:01:14;;;;;;;4.62;2.10;;;30.20;35.00;;;;;;20532;6840;279828;-87
2022/07/26 08:03:39;;;;;;;2.50;2.30;;;30.40;34.30;;;;;;20529;6840;341382;-87
2022/07/26 08:06:05;;;;;;;4.57;2.10;;;30.70;34.10;;;;;;20742;6840;117545;-87
2022/07/26 08:08:30;;;;;;;2.27;2.10;;;30.50;34.20;;;;;;20510;6840;279109;-87
2022/07/26 08:10:56;;;;;;;3.12;2.20;;;30.60;34.00;;;;;;20502;6840;279229;-87
2022/07/26 08:13:22;;;;;;;4.20;2.30;;;30.90;34.20;;;;;;20519;6840;308606;-87
2022/07/26 08:15:47;;;;;;;2.07;1.97;;;31.30;33.20;;;;;;20716;6840;123568;-87
2022/07/26 08:18:14;;;;;;;2.00;1.90;;;31.40;32.90;;;;;;20726;6840;117696;-87
2022/07/26 08:20:39;;;;;;;3.13;1.80;;;31.30;33.10;;;;;;20726;6840;116232;-87
2022/07/26 08:23:05;;;;;;;2.57;2.00;;;31.30;33.20;;;;;;20711;6840;118076;-87
2022/07/26 08:25:31;;;;;;;5.70;2.10;;;31.30;32.90;;;;;;20506;6840;309342;-87
2022/07/26 08:27:56;;;;;;;1.97;1.70;;;31.60;31.80;;;;;;20737;6840;117605;-86
2022/07/26 08:30:22;;;;;;;1.90;1.80;;;31.60;31.40;;;;;;20525;6840;279015;-87
2022/07/26 08:32:48;;;;;;;2.20;1.80;;;31.70;30.10;;;;;;20502;6840;308518;-86
2022/07/26 08:35:14;;;;;;;1.77;1.60;;;31.70;30.10;;;;;;20735;6840;117391;-87
2022/07/26 08:37:39;;;;;;;3.35;1.80;;;31.40;30.60;;;;;;20516;6840;308574;-87
2022/07/26 08:40:07;;;;;;;2.08;1.70;;;31.70;29.90;;;;;;20534;6840;278845;-87
2022/07/26 08:42:33;;;;;;;1.47;1.37;;;31.80;29.50;;;;;;20729;6840;117222;-87
2022/07/26 08:44:59;;;;;;;2.90;1.60;;;31.70;29.50;;;;;;20500;6840;311320;-87
2022/07/26 08:47:25;;;;;;;1.50;1.40;;;31.90;28.90;;;;;;20728;6838;117265;-86
2022/07/26 08:49:51;;;;;;;2.12;1.50;;;31.90;28.90;;;;;;20527;6840;278540;-86
2022/07/26 08:52:16;;;;;;;3.62;1.70;;;32.10;28.80;;;;;;20523;6840;308145;-85
2022/07/26 08:54:45;;;;;;;5.17;1.23;;;32.20;28.40;;;;;;20711;6840;121509;-86
2022/07/26 08:57:10;;;;;;;1.60;1.50;;;32.10;28.70;;;;;;20537;6840;308923;-85
2022/07/26 08:59:36;;;;;;;1.50;1.40;;;32.00;28.50;;;;;;20742;6840;116132;-85
2022/07/26 09:02:01;;;;;;;5.78;1.80;;;31.90;28.80;;;;;;20526;6840;308517;-85
2022/07/26 09:04:30;;;;;;;1.20;1.20;;;32.10;28.30;;;;;;20701;6840;118404;-85
2022/07/26 09:06:56;;;;;;;1.23;1.10;;;31.50;28.00;;;;;;20717;6840;140509;-85
2022/07/26 09:09:22;;;;;;;1.47;1.37;;;31.50;28.00;;;;;;20511;6840;282351;-85
2022/07/26 09:11:48;;;;;;;1.70;1.37;;;31.50;28.00;;;;;;20525;6840;308570;-85
2022/07/26 09:14:14;;;;;;;2.70;1.33;;;31.80;28.20;;;;;;20530;6840;308014;-86
2022/07/26 09:16:40;;;;;;;2.87;1.70;;;31.80;27.70;;;;;;20731;6840;121939;-86
2022/07/26 09:19:16;;;;;;;2.47;1.33;;;31.40;28.20;;;;;;20718;6840;117328;-85
2022/07/26 09:21:42;;;;;;;2.97;1.40;;;31.10;28.70;;;;;;20720;6840;119117;-85
2022/07/26 09:24:09;;;;;;;1.80;1.13;;;30.70;28.40;;;;;;20737;6840;117633;-87
2022/07/26 09:26:34;;;;;;;2.10;1.23;;;30.80;28.40;;;;;;20518;6840;309019;-85
2022/07/26 09:29:00;;;;;;;2.50;1.03;;;31.10;27.60;;;;;;20712;6840;118514;-85
2022/07/26 09:31:25;;;;;;;2.53;1.10;;;31.40;27.80;;;;;;20723;6840;117867;-85
2022/07/26 09:33:51;;;;;;;1.40;1.17;;;31.50;28.30;;;;;;20731;6840;118916;-86
2022/07/26 09:36:17;;;;;;;2.57;1.40;;;31.50;28.30;;;;;;20522;6840;312816;-85
2022/07/26 09:38:49;;;;;;;1.37;1.07;;;31.90;26.70;;;;;;20714;6840;118548;-85
2022/07/26 09:41:34;;;;;;;1.20;1.10;;;31.80;27.00;;;;;;20722;6840;117817;-85
2022/07/26 09:44:00;;;;;;;2.43;1.30;;;31.50;27.40;;;;;;20735;6840;118159;-86
2022/07/26 09:46:25;;;;;;;2.27;1.50;;;31.30;27.70;;;;;;20740;6840;119382;-84
2022/07/26 09:48:51;;;;;;;2.03;1.00;;;31.30;28.10;;;;;;20710;6840;118206;-88
2022/07/26 09:51:36;;;;;;;3.72;1.42;;;31.40;28.10;;;;;;20528;6840;311718;-89
2022/07/26 09:54:03;;;;;;;2.20;1.40;;;32.10;27.30;;;;;;20520;6840;278985;-87
2022/07/26 09:56:42;;;;;;;2.13;1.20;;;32.10;27.30;;;;;;20720;6840;121558;-87
2022/07/26 09:59:07;;;;;;;1.73;1.20;;;32.10;27.30;;;;;;20723;6838;117352;-86
2022/07/26 10:01:32;;;;;;;1.23;1.13;;;31.90;27.40;;;;;;20726;6840;117146;-89
2022/07/26 10:03:59;;;;;;;2.75;1.20;;;31.80;27.70;;;;;;20529;6840;308509;-85
2022/07/26 10:06:25;;;;;;;1.20;1.10;;;32.10;27.00;;;;;;20721;6840;117117;-85
2022/07/26 10:08:51;;;;;;;1.33;1.10;;;32.30;27.10;;;;;;20692;6840;119299;-86
2022/07/26 10:11:16;;;;;;;2.50;1.20;;;32.20;27.00;;;;;;20509;6840;308257;-85
2022/07/26 10:13:42;;;;;;;1.73;1.07;;;32.30;25.80;;;;;;20707;6840;118955;-84
2022/07/26 10:16:07;;;;;;;1.30;1.20;;;32.10;26.20;;;;;;20529;6840;307740;-84
2022/07/26 10:18:36;;;;;;;1.45;1.30;;;32.10;26.00;;;;;;20451;6840;278876;-84
2022/07/26 10:21:14;;;;;;;1.40;1.10;;;32.30;25.80;;;;;;20743;6840;117857;-87
2022/07/26 10:23:43;;;;;;;2.27;1.07;;;32.00;26.10;;;;;;20524;6840;313941;-85
2022/07/26 10:26:09;;;;;;;2.27;1.30;;;32.10;25.60;;;;;;20533;6840;308167;-85
2022/07/26 10:28:35;;;;;;;2.60;1.20;;;32.60;26.20;;;;;;20507;6840;312580;-85
2022/07/26 10:31:28;;;;;;;1.20;1.10;;;32.50;26.10;;;;;;20518;6840;288712;-87
2022/07/26 10:33:52;;;;;;;1.40;1.10;;;32.80;25.20;;;;;;20527;6840;335323;-85
2022/07/26 10:36:25;;;;;;;1.10;1.10;;;33.20;25.30;;;;;;20739;6840;117319;-85
2022/07/26 10:38:56;;;;;;;7.37;1.70;;;33.20;25.50;;;;;;20504;6840;278487;-86
2022/07/26 10:41:32;;;;;;;3.10;1.20;;;33.20;25.40;;;;;;20509;6840;308529;-85
2022/07/26 10:44:14;;;;;;;1.60;1.13;;;33.30;25.50;;;;;;20732;6840;118011;-87
2022/07/26 10:46:52;;;;;;;1.70;1.10;;;33.20;25.50;;;;;;20365;6840;311710;-85
2022/07/26 10:49:18;;;;;;;1.30;1.20;;;33.40;25.10;;;;;;20367;6840;280359;-85
2022/07/26 10:51:44;;;;;;;2.47;1.20;;;33.50;24.90;;;;;;20751;6840;117812;-84
2022/07/26 10:54:09;;;;;;;1.67;1.10;;;33.30;25.20;;;;;;20534;6840;308539;-86
2022/07/26 10:56:35;;;;;;;1.15;1.05;;;33.20;24.60;;;;;;20521;6840;308184;-85
2022/07/26 10:59:00;;;;;;;2.03;1.17;;;33.40;24.80;;;;;;20722;6840;118523;-86
2022/07/26 11:01:35;;;;;;;1.50;0.97;;;33.20;25.00;;;;;;20734;6840;117857;-86
2022/07/26 11:04:02;;;;;;;1.90;1.03;;;32.70;25.60;;;;;;20723;6840;117356;-87
2022/07/26 11:06:28;;;;;;;1.40;1.10;;;32.70;25.60;;;;;;20523;6840;286067;-87
2022/07/26 11:08:54;;;;;;;2.03;1.23;;;32.90;24.90;;;;;;20476;6840;308932;-86
2022/07/26 11:11:28;;;;;;;1.70;1.03;;;33.20;25.10;;;;;;20517;6838;308018;-87
2022/07/26 11:13:54;;;;;;;2.40;1.10;;;33.40;24.30;;;;;;20722;6840;117282;-87
2022/07/26 11:16:22;;;;;;;1.40;0.97;;;32.90;24.90;;;;;;20703;6840;117483;-87
2022/07/26 11:18:46;;;;;;;2.20;1.43;;;32.90;24.90;;;;;;20503;6840;308874;-86
2022/07/26 11:21:15;;;;;;;2.63;1.20;;;33.20;24.50;;;;;;20535;6840;315576;-89
2022/07/26 11:23:42;;;;;;;2.00;1.00;;;33.20;24.50;;;;;;20742;6840;117727;-89
2022/07/26 11:26:09;;;;;;;1.27;1.10;;;33.00;24.50;;;;;;20723;6840;118125;-86
2022/07/26 11:28:55;;;;;;;1.23;1.00;;;32.60;25.00;;;;;;20737;6840;117714;-88
2022/07/26 11:31:20;;;;;;;4.40;1.10;;;32.40;25.40;;;;;;20517;6840;319396;-86
2022/07/26 11:33:47;;;;;;;1.30;1.00;;;32.40;24.60;;;;;;20521;6840;301076;-88
2022/07/26 11:36:11;;;;;;;1.80;1.10;;;32.60;25.70;;;;;;20728;6840;120076;-87
2022/07/26 11:38:50;;;;;;;2.47;1.10;;;32.50;25.20;;;;;;20533;6840;308098;-85
2022/07/26 11:41:22;;;;;;;3.03;1.10;;;32.40;25.20;;;;;;20727;6840;117408;-87
2022/07/26 11:43:48;;;;;;;2.73;1.40;;;32.40;25.10;;;;;;20746;6840;117448;-84
2022/07/26 11:46:13;;;;;;;1.95;1.08;;;32.30;25.30;;;;;;20526;6840;342265;-85
2022/07/26 11:48:39;;;;;;;1.20;1.10;;;32.40;24.70;;;;;;20728;6840;117209;-85
2022/07/26 11:51:17;;;;;;;1.10;1.10;;;32.30;24.60;;;;;;20636;6840;119175;-85
2022/07/26 11:53:43;;;;;;;3.47;1.13;;;32.00;25.20;;;;;;20731;6840;117532;-86
2022/07/26 11:56:15;;;;;;;1.33;1.10;;;31.90;25.90;;;;;;20706;6840;121050;-84
2022/07/26 11:58:40;;;;;;;1.17;1.10;;;31.80;25.00;;;;;;20474;6840;339175;-85
2022/07/26 12:01:06;;;;;;;1.05;1.00;;;32.00;25.50;;;;;;20739;6840;118313;-85
2022/07/26 12:03:35;;;;;;;2.00;1.17;;;32.00;24.90;;;;;;20747;6840;117217;-86
2022/07/26 12:06:06;;;;;;;3.10;1.10;;;31.70;25.00;;;;;;20532;6840;310000;-84
2022/07/26 12:08:39;;;;;;;1.30;1.20;;;31.90;25.20;;;;;;20547;6840;308450;-84
2022/07/26 12:11:05;;;;;;;1.37;0.80;;;32.20;25.30;;;;;;20716;6840;118119;-86
2022/07/26 12:13:32;;;;;;;1.67;1.00;;;32.30;25.30;;;;;;20753;6840;117185;-84
2022/07/26 12:15:57;;;;;;;1.12;1.05;;;32.30;25.00;;;;;;20481;6840;331755;-84
2022/07/26 12:18:26;;;;;;;1.07;1.00;;;32.50;24.60;;;;;;20750;6840;116803;-84
2022/07/26 12:20:55;;;;;;;4.00;1.10;;;32.60;25.10;;;;;;20506;6838;291738;-84
2022/07/26 12:23:21;;;;;;;6.50;1.43;;;32.70;25.30;;;;;;20391;6839;307191;-83
2022/07/26 12:25:46;;;;;;;3.07;1.00;;;33.10;24.90;;;;;;20729;6840;117497;-85
2022/07/26 12:28:12;;;;;;;2.30;1.20;;;32.90;25.00;;;;;;20526;6840;308423;-85
2022/07/26 12:30:37;;;;;;;2.97;1.07;;;32.80;25.30;;;;;;20749;6840;117385;-83
2022/07/26 12:33:03;;;;;;;1.63;0.77;;;32.70;25.30;;;;;;20705;6840;116975;-85
2022/07/26 12:35:32;;;;;;;1.17;0.95;;;32.20;25.40;;;;;;20512;6840;308989;-86